This is the latest recevied weather packets stored in our database for station/object DM3FAM-13. If no packets are shown the sender has not sent any weather packets the latest 1 day(s).
| Time | Temp. | Humidity | Pressure | Rain* | Wind** | Luminosity | Snow |
|---|---|---|---|---|---|---|---|
| 1836274429 | 14.44° C | 89% | 1022.1 hPa | 0 mm | 0.45 m/s, 32° | 0 W/m² | - |
| 1836274279 | 14.44° C | 89% | 1022.1 hPa | 0 mm | 0.45 m/s, 34° | 0 W/m² | - |
| 1778005230 | 13.33° C | 91% | 1008.8 hPa | 0 mm | 0 m/s | 1 W/m² | - |
| 1778004030 | 13.33° C | 91% | 1008.4 hPa | 0 mm | 0 m/s | 11 W/m² | - |
| 1778003430 | 13.89° C | 90% | 1008.5 hPa | 0 mm | 0.89 m/s, 31° | 11 W/m² | - |
| 1778002830 | 13.89° C | 90% | 1008.3 hPa | 0 mm | 0 m/s | 21 W/m² | - |
| 1778002230 | 13.89° C | 90% | 1008.4 hPa | 0 mm | 0.45 m/s, 13° | 49 W/m² | - |
| 1778001630 | 14.44° C | 90% | 1008.3 hPa | 0 mm | 0.45 m/s, 33° | 55 W/m² | - |
| 1778001030 | 14.44° C | 90% | 1008.2 hPa | 0 mm | 0.89 m/s, 30° | 43 W/m² | - |
| 1777999830 | 13.89° C | 88% | 1008.3 hPa | 0 mm | 0.45 m/s, 25° | 62 W/m² | - |
| 1777999231 | 14.44° C | 89% | 1008.3 hPa | 0 mm | 0.45 m/s, 27° | 57 W/m² | - |
| 1777993230 | 13.89° C | 87% | 1008.4 hPa | 2.03 mm | 0.89 m/s, 192° | 6 W/m² | - |
| 1777992630 | 15° C | 84% | 1008.2 hPa | 1.52 mm | 1.34 m/s, 213° | 8 W/m² | - |
| 1777992030 | 16.11° C | 75% | 1007.9 hPa | 0.25 mm | 1.34 m/s, 184° | 5 W/m² | - |
| 1777991430 | 16.67° C | 73% | 1007.5 hPa | 0 mm | 0.45 m/s, 205° | 35 W/m² | - |
| 1777990830 | 16.67° C | 72% | 1007.6 hPa | 0 mm | 0 m/s | 83 W/m² | - |
| 1777990230 | 17.22° C | 72% | 1007.7 hPa | 0 mm | 0.89 m/s, 193° | 137 W/m² | - |
| 1777989631 | 17.22° C | 72% | 1007.6 hPa | 0 mm | 0.89 m/s, 194° | 212 W/m² | - |
| 1777989031 | 17.22° C | 73% | 1007.8 hPa | 0 mm | 0.45 m/s, 210° | 300 W/m² | - |
| 1777988430 | 17.22° C | 73% | 1008 hPa | 0 mm | 0.89 m/s, 197° | 186 W/m² | - |
| 1777987833 | 17.78° C | 71% | 1008 hPa | 0 mm | 0.45 m/s, 225° | 115 W/m² | - |
| 1777987230 | 17.22° C | 74% | 1008.1 hPa | 0 mm | 0 m/s | 505 W/m² | - |
| 1777986630 | 17.22° C | 76% | 1008.1 hPa | 0 mm | 0 m/s | 272 W/m² | - |
| 1777985430 | 15.56° C | 80% | 1008.4 hPa | 0 mm | 0 m/s | 135 W/m² | - |
| 1777984830 | 15.56° C | 80% | 1008.5 hPa | 0 mm | 0 m/s | 101 W/m² | - |
* Rain latest hour (hover to see other rain measurements)
** Current wind speed in m/s (hover to see current wind gust speed)